sensor_id;sensor_type;location;lat;lon;timestamp;P1;durP1;ratioP1;P2;durP2;ratioP2
22164;SDS011;11248;52.512;13.520;2022-10-16T00:02:22;2.33;;;2.13;;
22164;SDS011;11248;52.512;13.520;2022-10-16T00:04:48;3.53;;;2.35;;
22164;SDS011;11248;52.512;13.520;2022-10-16T00:07:14;3.25;;;2.40;;
22164;SDS011;11248;52.512;13.520;2022-10-16T00:09:40;2.42;;;2.22;;
22164;SDS011;11248;52.512;13.520;2022-10-16T00:12:06;2.25;;;2.05;;
22164;SDS011;11248;52.512;13.520;2022-10-16T00:14:32;2.30;;;2.10;;
22164;SDS011;11248;52.512;13.520;2022-10-16T00:16:58;2.35;;;2.15;;
22164;SDS011;11248;52.512;13.520;2022-10-16T00:19:24;2.55;;;2.03;;
22164;SDS011;11248;52.512;13.520;2022-10-16T00:21:50;2.35;;;2.10;;
22164;SDS011;11248;52.512;13.520;2022-10-16T00:24:16;2.40;;;2.13;;
22164;SDS011;11248;52.512;13.520;2022-10-16T00:26:42;2.40;;;2.13;;
22164;SDS011;11248;52.512;13.520;2022-10-16T00:29:08;2.97;;;2.05;;
22164;SDS011;11248;52.512;13.520;2022-10-16T00:31:34;2.83;;;2.45;;
22164;SDS011;11248;52.512;13.520;2022-10-16T00:34:00;2.80;;;2.20;;
22164;SDS011;11248;52.512;13.520;2022-10-16T00:36:26;2.22;;;2.00;;
22164;SDS011;11248;52.512;13.520;2022-10-16T00:38:53;3.60;;;2.67;;
22164;SDS011;11248;52.512;13.520;2022-10-16T00:41:20;2.40;;;2.15;;
22164;SDS011;11248;52.512;13.520;2022-10-16T00:46:17;2.88;;;2.35;;
22164;SDS011;11248;52.512;13.520;2022-10-16T00:48:46;2.28;;;2.08;;
22164;SDS011;11248;52.512;13.520;2022-10-16T00:51:13;3.60;;;2.00;;
22164;SDS011;11248;52.512;13.520;2022-10-16T00:53:39;3.00;;;2.08;;
22164;SDS011;11248;52.512;13.520;2022-10-16T00:56:05;1.92;;;1.80;;
22164;SDS011;11248;52.512;13.520;2022-10-16T00:58:31;2.28;;;1.80;;
22164;SDS011;11248;52.512;13.520;2022-10-16T01:00:57;3.15;;;1.80;;
22164;SDS011;11248;52.512;13.520;2022-10-16T01:03:25;1.85;;;1.60;;
22164;SDS011;11248;52.512;13.520;2022-10-16T01:05:55;1.50;;;1.40;;
22164;SDS011;11248;52.512;13.520;2022-10-16T01:08:27;1.70;;;1.60;;
22164;SDS011;11248;52.512;13.520;2022-10-16T01:11:06;1.65;;;1.40;;
22164;SDS011;11248;52.512;13.520;2022-10-16T01:13:38;2.30;;;1.70;;
22164;SDS011;11248;52.512;13.520;2022-10-16T01:16:07;1.55;;;1.40;;
22164;SDS011;11248;52.512;13.520;2022-10-16T01:21:08;1.70;;;1.60;;
22164;SDS011;11248;52.512;13.520;2022-10-16T01:23:43;1.63;;;1.52;;
22164;SDS011;11248;52.512;13.520;2022-10-16T01:26:31;1.80;;;1.50;;
22164;SDS011;11248;52.512;13.520;2022-10-16T01:29:13;2.28;;;1.60;;
22164;SDS011;11248;52.512;13.520;2022-10-16T01:31:41;1.65;;;1.50;;
22164;SDS011;11248;52.512;13.520;2022-10-16T01:34:14;1.70;;;1.60;;
22164;SDS011;11248;52.512;13.520;2022-10-16T01:36:50;1.80;;;1.70;;
22164;SDS011;11248;52.512;13.520;2022-10-16T01:39:20;1.80;;;1.58;;
22164;SDS011;11248;52.512;13.520;2022-10-16T01:41:48;1.40;;;1.30;;
22164;SDS011;11248;52.512;13.520;2022-10-16T01:44:18;1.80;;;1.38;;
22164;SDS011;11248;52.512;13.520;2022-10-16T01:46:46;2.08;;;1.60;;
22164;SDS011;11248;52.512;13.520;2022-10-16T01:49:13;1.52;;;1.42;;
22164;SDS011;11248;52.512;13.520;2022-10-16T01:51:40;1.60;;;1.50;;
22164;SDS011;11248;52.512;13.520;2022-10-16T01:54:08;1.77;;;1.60;;
22164;SDS011;11248;52.512;13.520;2022-10-16T01:56:34;1.48;;;1.38;;
22164;SDS011;11248;52.512;13.520;2022-10-16T01:59:05;1.40;;;1.30;;
22164;SDS011;11248;52.512;13.520;2022-10-16T02:01:32;2.03;;;1.50;;
22164;SDS011;11248;52.512;13.520;2022-10-16T02:04:01;1.70;;;1.60;;
22164;SDS011;11248;52.512;13.520;2022-10-16T02:06:28;1.67;;;1.35;;
22164;SDS011;11248;52.512;13.520;2022-10-16T02:08:55;1.33;;;1.23;;
22164;SDS011;11248;52.512;13.520;2022-10-16T02:11:21;1.33;;;1.23;;
22164;SDS011;11248;52.512;13.520;2022-10-16T02:13:48;1.27;;;1.20;;
22164;SDS011;11248;52.512;13.520;2022-10-16T02:16:15;1.40;;;1.23;;
22164;SDS011;11248;52.512;13.520;2022-10-16T02:18:42;1.20;;;1.10;;
22164;SDS011;11248;52.512;13.520;2022-10-16T02:23:36;1.50;;;1.40;;
22164;SDS011;11248;52.512;13.520;2022-10-16T02:26:04;1.48;;;1.38;;
22164;SDS011;11248;52.512;13.520;2022-10-16T02:28:38;1.50;;;1.40;;
22164;SDS011;11248;52.512;13.520;2022-10-16T02:31:06;1.48;;;1.38;;
22164;SDS011;11248;52.512;13.520;2022-10-16T02:33:34;1.25;;;1.15;;
22164;SDS011;11248;52.512;13.520;2022-10-16T02:36:01;1.40;;;1.20;;
22164;SDS011;11248;52.512;13.520;2022-10-16T02:38:27;1.42;;;1.20;;
22164;SDS011;11248;52.512;13.520;2022-10-16T02:40:55;1.60;;;1.20;;
22164;SDS011;11248;52.512;13.520;2022-10-16T02:43:21;1.00;;;1.00;;
22164;SDS011;11248;52.512;13.520;2022-10-16T02:45:46;1.65;;;1.30;;
22164;SDS011;11248;52.512;13.520;2022-10-16T02:48:12;1.10;;;1.10;;
22164;SDS011;11248;52.512;13.520;2022-10-16T02:50:39;1.40;;;1.20;;
22164;SDS011;11248;52.512;13.520;2022-10-16T02:53:05;1.63;;;1.30;;
22164;SDS011;11248;52.512;13.520;2022-10-16T02:55:31;2.47;;;1.40;;
22164;SDS011;11248;52.512;13.520;2022-10-16T02:57:57;1.60;;;1.25;;
22164;SDS011;11248;52.512;13.520;2022-10-16T03:00:23;2.20;;;1.30;;
22164;SDS011;11248;52.512;13.520;2022-10-16T03:02:49;1.60;;;1.50;;
22164;SDS011;11248;52.512;13.520;2022-10-16T03:05:15;3.92;;;1.40;;
22164;SDS011;11248;52.512;13.520;2022-10-16T03:07:41;1.88;;;1.58;;
22164;SDS011;11248;52.512;13.520;2022-10-16T03:10:07;1.70;;;1.40;;
22164;SDS011;11248;52.512;13.520;2022-10-16T03:12:33;1.52;;;1.40;;
22164;SDS011;11248;52.512;13.520;2022-10-16T03:14:59;1.65;;;1.15;;
22164;SDS011;11248;52.512;13.520;2022-10-16T03:17:25;1.65;;;1.20;;
22164;SDS011;11248;52.512;13.520;2022-10-16T03:19:51;1.08;;;1.00;;
22164;SDS011;11248;52.512;13.520;2022-10-16T03:22:17;1.92;;;1.30;;
22164;SDS011;11248;52.512;13.520;2022-10-16T03:24:43;1.30;;;1.20;;
22164;SDS011;11248;52.512;13.520;2022-10-16T03:27:09;1.67;;;1.20;;
22164;SDS011;11248;52.512;13.520;2022-10-16T03:29:34;1.42;;;1.20;;
22164;SDS011;11248;52.512;13.520;2022-10-16T03:32:00;1.30;;;1.20;;
22164;SDS011;11248;52.512;13.520;2022-10-16T03:34:26;1.83;;;1.15;;
22164;SDS011;11248;52.512;13.520;2022-10-16T03:36:52;1.30;;;1.20;;
22164;SDS011;11248;52.512;13.520;2022-10-16T03:39:19;2.47;;;1.15;;
22164;SDS011;11248;52.512;13.520;2022-10-16T03:41:45;1.30;;;1.20;;
22164;SDS011;11248;52.512;13.520;2022-10-16T03:44:13;1.23;;;1.08;;
22164;SDS011;11248;52.512;13.520;2022-10-16T03:46:40;1.52;;;1.27;;
22164;SDS011;11248;52.512;13.520;2022-10-16T03:49:06;1.20;;;1.10;;
22164;SDS011;11248;52.512;13.520;2022-10-16T03:51:32;1.50;;;1.08;;
22164;SDS011;11248;52.512;13.520;2022-10-16T03:53:58;1.83;;;1.05;;
22164;SDS011;11248;52.512;13.520;2022-10-16T03:56:24;2.85;;;1.20;;
22164;SDS011;11248;52.512;13.520;2022-10-16T03:58:49;2.80;;;1.42;;
22164;SDS011;11248;52.512;13.520;2022-10-16T04:01:15;1.40;;;1.30;;
22164;SDS011;11248;52.512;13.520;2022-10-16T04:03:41;1.40;;;1.20;;
22164;SDS011;11248;52.512;13.520;2022-10-16T04:06:07;1.00;;;0.90;;
22164;SDS011;11248;52.512;13.520;2022-10-16T04:08:33;1.40;;;1.30;;
22164;SDS011;11248;52.512;13.520;2022-10-16T04:11:01;1.75;;;1.60;;
22164;SDS011;11248;52.512;13.520;2022-10-16T04:13:27;1.40;;;1.30;;
22164;SDS011;11248;52.512;13.520;2022-10-16T04:15:53;1.08;;;0.95;;
22164;SDS011;11248;52.512;13.520;2022-10-16T04:18:19;1.00;;;1.00;;
22164;SDS011;11248;52.512;13.520;2022-10-16T04:20:45;1.13;;;1.02;;
22164;SDS011;11248;52.512;13.520;2022-10-16T04:23:11;1.30;;;1.20;;
22164;SDS011;11248;52.512;13.520;2022-10-16T04:25:37;2.90;;;1.30;;
22164;SDS011;11248;52.512;13.520;2022-10-16T04:28:02;1.90;;;1.20;;
22164;SDS011;11248;52.512;13.520;2022-10-16T04:30:29;1.40;;;1.30;;
22164;SDS011;11248;52.512;13.520;2022-10-16T04:32:55;1.20;;;1.10;;
22164;SDS011;11248;52.512;13.520;2022-10-16T04:35:21;1.50;;;1.20;;
22164;SDS011;11248;52.512;13.520;2022-10-16T04:37:47;1.08;;;1.00;;
22164;SDS011;11248;52.512;13.520;2022-10-16T04:40:13;0.90;;;0.90;;
22164;SDS011;11248;52.512;13.520;2022-10-16T04:42:39;1.35;;;1.25;;
22164;SDS011;11248;52.512;13.520;2022-10-16T04:45:06;1.92;;;1.33;;
22164;SDS011;11248;52.512;13.520;2022-10-16T04:47:33;1.33;;;1.23;;
22164;SDS011;11248;52.512;13.520;2022-10-16T04:49:58;1.40;;;1.30;;
22164;SDS011;11248;52.512;13.520;2022-10-16T04:52:26;1.30;;;1.20;;
22164;SDS011;11248;52.512;13.520;2022-10-16T04:54:52;1.40;;;1.30;;
22164;SDS011;11248;52.512;13.520;2022-10-16T04:57:19;1.40;;;1.30;;
22164;SDS011;11248;52.512;13.520;2022-10-16T04:59:44;1.35;;;1.20;;
22164;SDS011;11248;52.512;13.520;2022-10-16T05:02:10;1.20;;;1.10;;
22164;SDS011;11248;52.512;13.520;2022-10-16T05:04:36;1.10;;;1.00;;
22164;SDS011;11248;52.512;13.520;2022-10-16T05:07:02;1.35;;;1.25;;
22164;SDS011;11248;52.512;13.520;2022-10-16T05:09:28;1.85;;;1.50;;
22164;SDS011;11248;52.512;13.520;2022-10-16T05:11:54;1.33;;;1.23;;
22164;SDS011;11248;52.512;13.520;2022-10-16T05:14:20;2.25;;;1.38;;
22164;SDS011;11248;52.512;13.520;2022-10-16T05:16:46;2.22;;;1.20;;
22164;SDS011;11248;52.512;13.520;2022-10-16T05:19:13;1.42;;;1.33;;
22164;SDS011;11248;52.512;13.520;2022-10-16T05:21:39;1.70;;;1.35;;
22164;SDS011;11248;52.512;13.520;2022-10-16T05:24:04;1.40;;;1.30;;
22164;SDS011;11248;52.512;13.520;2022-10-16T05:26:30;1.48;;;1.38;;
22164;SDS011;11248;52.512;13.520;2022-10-16T05:28:56;1.20;;;1.10;;
22164;SDS011;11248;52.512;13.520;2022-10-16T05:31:22;1.42;;;1.20;;
22164;SDS011;11248;52.512;13.520;2022-10-16T05:33:48;2.03;;;1.45;;
22164;SDS011;11248;52.512;13.520;2022-10-16T05:36:14;1.30;;;1.20;;
22164;SDS011;11248;52.512;13.520;2022-10-16T05:38:40;1.40;;;1.30;;
22164;SDS011;11248;52.512;13.520;2022-10-16T05:41:06;1.27;;;1.17;;
22164;SDS011;11248;52.512;13.520;2022-10-16T05:43:32;2.83;;;1.25;;
22164;SDS011;11248;52.512;13.520;2022-10-16T05:46:03;1.95;;;1.45;;
22164;SDS011;11248;52.512;13.520;2022-10-16T05:48:30;1.45;;;1.30;;
22164;SDS011;11248;52.512;13.520;2022-10-16T05:50:56;2.30;;;1.60;;
22164;SDS011;11248;52.512;13.520;2022-10-16T05:53:23;1.33;;;1.23;;
22164;SDS011;11248;52.512;13.520;2022-10-16T05:55:53;1.58;;;1.33;;
22164;SDS011;11248;52.512;13.520;2022-10-16T05:58:20;1.60;;;1.40;;
22164;SDS011;11248;52.512;13.520;2022-10-16T06:00:52;1.63;;;1.52;;
22164;SDS011;11248;52.512;13.520;2022-10-16T06:03:18;2.00;;;1.52;;
22164;SDS011;11248;52.512;13.520;2022-10-16T06:05:44;2.15;;;1.70;;
22164;SDS011;11248;52.512;13.520;2022-10-16T06:08:10;4.55;;;3.90;;
22164;SDS011;11248;52.512;13.520;2022-10-16T06:10:36;3.15;;;2.85;;
22164;SDS011;11248;52.512;13.520;2022-10-16T06:13:02;3.60;;;3.03;;
22164;SDS011;11248;52.512;13.520;2022-10-16T06:15:27;3.17;;;2.88;;
22164;SDS011;11248;52.512;13.520;2022-10-16T06:17:53;3.47;;;3.17;;
22164;SDS011;11248;52.512;13.520;2022-10-16T06:20:19;5.65;;;5.07;;
22164;SDS011;11248;52.512;13.520;2022-10-16T06:22:45;3.47;;;3.17;;
22164;SDS011;11248;52.512;13.520;2022-10-16T06:25:11;2.88;;;2.50;;
22164;SDS011;11248;52.512;13.520;2022-10-16T06:27:39;1.85;;;1.65;;
22164;SDS011;11248;52.512;13.520;2022-10-16T06:30:05;1.80;;;1.70;;
22164;SDS011;11248;52.512;13.520;2022-10-16T06:32:31;1.88;;;1.70;;
22164;SDS011;11248;52.512;13.520;2022-10-16T06:34:57;1.98;;;1.67;;
22164;SDS011;11248;52.512;13.520;2022-10-16T06:37:23;1.60;;;1.50;;
22164;SDS011;11248;52.512;13.520;2022-10-16T06:39:50;2.20;;;1.98;;
22164;SDS011;11248;52.512;13.520;2022-10-16T06:42:18;5.70;;;2.90;;
22164;SDS011;11248;52.512;13.520;2022-10-16T06:44:44;3.08;;;2.45;;
22164;SDS011;11248;52.512;13.520;2022-10-16T06:47:10;4.22;;;3.03;;
22164;SDS011;11248;52.512;13.520;2022-10-16T06:49:36;3.10;;;2.13;;
22164;SDS011;11248;52.512;13.520;2022-10-16T06:52:03;3.08;;;2.05;;
22164;SDS011;11248;52.512;13.520;2022-10-16T06:54:29;2.10;;;1.80;;
22164;SDS011;11248;52.512;13.520;2022-10-16T06:56:55;1.90;;;1.75;;
22164;SDS011;11248;52.512;13.520;2022-10-16T06:59:21;1.73;;;1.58;;
22164;SDS011;11248;52.512;13.520;2022-10-16T07:01:47;2.58;;;1.63;;
22164;SDS011;11248;52.512;13.520;2022-10-16T07:04:13;2.60;;;1.50;;
22164;SDS011;11248;52.512;13.520;2022-10-16T07:06:39;2.70;;;1.50;;
22164;SDS011;11248;52.512;13.520;2022-10-16T07:09:08;1.35;;;1.25;;
22164;SDS011;11248;52.512;13.520;2022-10-16T07:11:34;2.47;;;1.27;;
22164;SDS011;11248;52.512;13.520;2022-10-16T07:14:00;3.58;;;1.70;;
22164;SDS011;11248;52.512;13.520;2022-10-16T07:16:27;1.50;;;1.40;;
22164;SDS011;11248;52.512;13.520;2022-10-16T07:18:54;1.80;;;1.70;;
22164;SDS011;11248;52.512;13.520;2022-10-16T07:21:23;3.58;;;2.05;;
22164;SDS011;11248;52.512;13.520;2022-10-16T07:23:54;1.58;;;1.48;;
22164;SDS011;11248;52.512;13.520;2022-10-16T07:26:20;1.95;;;1.60;;
22164;SDS011;11248;52.512;13.520;2022-10-16T07:28:46;1.52;;;1.42;;
22164;SDS011;11248;52.512;13.520;2022-10-16T07:31:13;1.60;;;1.50;;
22164;SDS011;11248;52.512;13.520;2022-10-16T07:33:39;1.67;;;1.40;;
22164;SDS011;11248;52.512;13.520;2022-10-16T07:36:06;2.65;;;1.40;;
22164;SDS011;11248;52.512;13.520;2022-10-16T07:38:32;2.40;;;1.40;;
22164;SDS011;11248;52.512;13.520;2022-10-16T07:41:05;1.67;;;1.58;;
22164;SDS011;11248;52.512;13.520;2022-10-16T07:43:32;2.10;;;1.42;;
22164;SDS011;11248;52.512;13.520;2022-10-16T07:45:58;1.52;;;1.42;;
22164;SDS011;11248;52.512;13.520;2022-10-16T07:48:26;3.22;;;1.20;;
22164;SDS011;11248;52.512;13.520;2022-10-16T07:50:52;1.95;;;1.45;;
22164;SDS011;11248;52.512;13.520;2022-10-16T07:53:18;2.53;;;1.20;;
22164;SDS011;11248;52.512;13.520;2022-10-16T07:55:44;1.52;;;1.17;;
22164;SDS011;11248;52.512;13.520;2022-10-16T07:58:10;1.48;;;1.20;;
22164;SDS011;11248;52.512;13.520;2022-10-16T08:00:36;1.58;;;1.40;;
22164;SDS011;11248;52.512;13.520;2022-10-16T08:03:02;2.42;;;1.85;;
22164;SDS011;11248;52.512;13.520;2022-10-16T08:05:29;2.95;;;1.52;;
22164;SDS011;11248;52.512;13.520;2022-10-16T08:07:55;2.50;;;1.40;;
22164;SDS011;11248;52.512;13.520;2022-10-16T08:10:23;1.85;;;1.33;;
22164;SDS011;11248;52.512;13.520;2022-10-16T08:12:49;1.45;;;1.15;;
22164;SDS011;11248;52.512;13.520;2022-10-16T08:15:15;2.13;;;1.10;;
22164;SDS011;11248;52.512;13.520;2022-10-16T08:17:41;1.20;;;1.10;;
22164;SDS011;11248;52.512;13.520;2022-10-16T08:20:07;1.83;;;1.45;;
22164;SDS011;11248;52.512;13.520;2022-10-16T08:22:33;1.25;;;0.90;;
22164;SDS011;11248;52.512;13.520;2022-10-16T08:24:59;1.65;;;1.05;;
22164;SDS011;11248;52.512;13.520;2022-10-16T08:27:30;3.92;;;1.23;;
22164;SDS011;11248;52.512;13.520;2022-10-16T08:29:56;1.17;;;1.05;;
22164;SDS011;11248;52.512;13.520;2022-10-16T08:32:22;1.20;;;1.10;;
22164;SDS011;11248;52.512;13.520;2022-10-16T08:34:48;0.85;;;0.85;;
22164;SDS011;11248;52.512;13.520;2022-10-16T08:37:14;1.85;;;1.10;;
22164;SDS011;11248;52.512;13.520;2022-10-16T08:39:40;1.40;;;1.10;;
22164;SDS011;11248;52.512;13.520;2022-10-16T08:42:09;1.20;;;1.10;;
22164;SDS011;11248;52.512;13.520;2022-10-16T08:44:44;1.70;;;1.23;;
22164;SDS011;11248;52.512;13.520;2022-10-16T08:47:20;0.98;;;0.93;;
22164;SDS011;11248;52.512;13.520;2022-10-16T08:49:55;1.63;;;1.40;;
22164;SDS011;11248;52.512;13.520;2022-10-16T08:52:21;1.88;;;1.20;;
22164;SDS011;11248;52.512;13.520;2022-10-16T08:54:55;1.67;;;0.93;;
22164;SDS011;11248;52.512;13.520;2022-10-16T08:57:22;1.48;;;1.10;;
22164;SDS011;11248;52.512;13.520;2022-10-16T08:59:50;2.08;;;1.10;;
22164;SDS011;11248;52.512;13.520;2022-10-16T09:02:23;1.70;;;1.05;;
22164;SDS011;11248;52.512;13.520;2022-10-16T09:07:49;3.08;;;1.00;;
22164;SDS011;11248;52.512;13.520;2022-10-16T09:15:38;4.97;;;1.45;;
22164;SDS011;11248;52.512;13.520;2022-10-16T09:18:26;1.50;;;0.90;;
22164;SDS011;11248;52.512;13.520;2022-10-16T09:21:15;1.70;;;0.93;;
22164;SDS011;11248;52.512;13.520;2022-10-16T09:23:43;1.13;;;1.00;;
22164;SDS011;11248;52.512;13.520;2022-10-16T09:26:11;1.88;;;1.10;;
22164;SDS011;11248;52.512;13.520;2022-10-16T09:28:37;1.45;;;0.93;;
22164;SDS011;11248;52.512;13.520;2022-10-16T09:31:03;1.10;;;1.00;;
22164;SDS011;11248;52.512;13.520;2022-10-16T09:33:30;3.10;;;1.05;;
22164;SDS011;11248;52.512;13.520;2022-10-16T09:35:58;1.70;;;1.02;;
22164;SDS011;11248;52.512;13.520;2022-10-16T09:38:31;0.95;;;0.93;;
22164;SDS011;11248;52.512;13.520;2022-10-16T09:40:58;1.70;;;0.90;;
22164;SDS011;11248;52.512;13.520;2022-10-16T09:43:26;2.58;;;1.20;;
22164;SDS011;11248;52.512;13.520;2022-10-16T09:46:00;3.35;;;0.80;;
22164;SDS011;11248;52.512;13.520;2022-10-16T09:48:28;1.88;;;0.80;;
22164;SDS011;11248;52.512;13.520;2022-10-16T09:50:57;1.25;;;0.85;;
22164;SDS011;11248;52.512;13.520;2022-10-16T09:53:23;0.98;;;0.93;;
22164;SDS011;11248;52.512;13.520;2022-10-16T09:55:53;2.05;;;1.00;;
22164;SDS011;11248;52.512;13.520;2022-10-16T09:58:21;1.45;;;1.10;;
22164;SDS011;11248;52.512;13.520;2022-10-16T10:00:48;1.10;;;1.00;;
22164;SDS011;11248;52.512;13.520;2022-10-16T10:03:20;1.10;;;1.00;;
22164;SDS011;11248;52.512;13.520;2022-10-16T10:05:55;1.20;;;1.10;;
22164;SDS011;11248;52.512;13.520;2022-10-16T10:08:21;1.88;;;1.30;;
22164;SDS011;11248;52.512;13.520;2022-10-16T10:10:47;1.10;;;1.00;;
22164;SDS011;11248;52.512;13.520;2022-10-16T10:13:18;1.65;;;1.20;;
22164;SDS011;11248;52.512;13.520;2022-10-16T10:15:45;1.00;;;0.90;;
22164;SDS011;11248;52.512;13.520;2022-10-16T10:18:14;0.93;;;0.90;;
22164;SDS011;11248;52.512;13.520;2022-10-16T10:20:41;1.25;;;0.90;;
22164;SDS011;11248;52.512;13.520;2022-10-16T10:23:21;1.17;;;1.00;;
22164;SDS011;11248;52.512;13.520;2022-10-16T10:28:39;0.90;;;0.80;;
22164;SDS011;11248;52.512;13.520;2022-10-16T10:31:17;1.98;;;1.08;;
22164;SDS011;11248;52.512;13.520;2022-10-16T10:41:43;1.42;;;0.70;;
22164;SDS011;11248;52.512;13.520;2022-10-16T10:47:01;1.08;;;0.90;;
22164;SDS011;11248;52.512;13.520;2022-10-16T10:52:12;0.88;;;0.88;;
22164;SDS011;11248;52.512;13.520;2022-10-16T10:54:49;2.15;;;0.80;;
22164;SDS011;11248;52.512;13.520;2022-10-16T10:57:31;1.98;;;0.95;;
22164;SDS011;11248;52.512;13.520;2022-10-16T11:00:06;3.60;;;1.00;;
22164;SDS011;11248;52.512;13.520;2022-10-16T11:05:24;1.10;;;0.93;;
22164;SDS011;11248;52.512;13.520;2022-10-16T11:10:21;1.00;;;0.90;;
22164;SDS011;11248;52.512;13.520;2022-10-16T11:12:50;0.95;;;0.85;;
22164;SDS011;11248;52.512;13.520;2022-10-16T11:20:23;0.93;;;0.88;;
22164;SDS011;11248;52.512;13.520;2022-10-16T11:22:51;5.10;;;0.95;;
22164;SDS011;11248;52.512;13.520;2022-10-16T11:27:47;1.67;;;0.77;;
22164;SDS011;11248;52.512;13.520;2022-10-16T11:30:21;1.10;;;0.90;;
22164;SDS011;11248;52.512;13.520;2022-10-16T11:35:24;3.05;;;0.90;;
22164;SDS011;11248;52.512;13.520;2022-10-16T11:37:51;1.40;;;0.77;;
22164;SDS011;11248;52.512;13.520;2022-10-16T11:40:25;1.90;;;0.77;;
22164;SDS011;11248;52.512;13.520;2022-10-16T11:42:56;0.80;;;0.70;;
22164;SDS011;11248;52.512;13.520;2022-10-16T11:45:26;0.98;;;0.70;;
22164;SDS011;11248;52.512;13.520;2022-10-16T11:48:00;1.27;;;1.00;;
22164;SDS011;11248;52.512;13.520;2022-10-16T11:50:29;1.05;;;0.63;;
22164;SDS011;11248;52.512;13.520;2022-10-16T11:53:13;0.90;;;0.70;;
22164;SDS011;11248;52.512;13.520;2022-10-16T11:55:42;1.00;;;0.70;;
22164;SDS011;11248;52.512;13.520;2022-10-16T11:58:13;1.42;;;0.80;;
22164;SDS011;11248;52.512;13.520;2022-10-16T12:00:56;0.60;;;0.60;;
22164;SDS011;11248;52.512;13.520;2022-10-16T12:03:28;2.47;;;0.70;;
22164;SDS011;11248;52.512;13.520;2022-10-16T12:08:39;0.70;;;0.70;;
22164;SDS011;11248;52.512;13.520;2022-10-16T12:11:06;0.57;;;0.57;;
22164;SDS011;11248;52.512;13.520;2022-10-16T12:13:37;2.35;;;0.73;;
22164;SDS011;11248;52.512;13.520;2022-10-16T12:18:39;1.83;;;0.80;;
22164;SDS011;11248;52.512;13.520;2022-10-16T12:21:05;1.23;;;0.90;;
22164;SDS011;11248;52.512;13.520;2022-10-16T12:23:32;1.05;;;0.75;;
22164;SDS011;11248;52.512;13.520;2022-10-16T12:25:59;0.60;;;0.60;;
22164;SDS011;11248;52.512;13.520;2022-10-16T12:28:27;2.35;;;0.73;;
22164;SDS011;11248;52.512;13.520;2022-10-16T12:30:54;0.75;;;0.60;;
22164;SDS011;11248;52.512;13.520;2022-10-16T12:33:22;0.80;;;0.50;;
22164;SDS011;11248;52.512;13.520;2022-10-16T12:35:48;0.70;;;0.50;;
22164;SDS011;11248;52.512;13.520;2022-10-16T12:38:24;0.90;;;0.80;;
22164;SDS011;11248;52.512;13.520;2022-10-16T12:41:07;0.60;;;0.60;;
22164;SDS011;11248;52.512;13.520;2022-10-16T12:46:21;1.05;;;0.68;;
22164;SDS011;11248;52.512;13.520;2022-10-16T12:48:47;0.60;;;0.60;;
22164;SDS011;11248;52.512;13.520;2022-10-16T12:53:57;0.70;;;0.57;;
22164;SDS011;11248;52.512;13.520;2022-10-16T12:59:21;2.33;;;0.60;;
22164;SDS011;11248;52.512;13.520;2022-10-16T13:02:39;0.50;;;0.50;;
22164;SDS011;11248;52.512;13.520;2022-10-16T13:04:42;0.60;;;0.60;;
22164;SDS011;11248;52.512;13.520;2022-10-16T13:07:18;0.82;;;0.63;;
22164;SDS011;11248;52.512;13.520;2022-10-16T13:20:21;0.65;;;0.65;;
22164;SDS011;11248;52.512;13.520;2022-10-16T13:22:54;0.40;;;0.40;;
22164;SDS011;11248;52.512;13.520;2022-10-16T13:25:25;1.45;;;0.80;;
22164;SDS011;11248;52.512;13.520;2022-10-16T13:27:55;2.00;;;1.25;;
22164;SDS011;11248;52.512;13.520;2022-10-16T13:30:23;0.47;;;0.43;;
22164;SDS011;11248;52.512;13.520;2022-10-16T13:32:51;0.80;;;0.50;;
22164;SDS011;11248;52.512;13.520;2022-10-16T13:35:24;1.58;;;0.90;;
22164;SDS011;11248;52.512;13.520;2022-10-16T13:37:50;1.13;;;0.68;;
22164;SDS011;11248;52.512;13.520;2022-10-16T13:40:23;2.33;;;0.70;;
22164;SDS011;11248;52.512;13.520;2022-10-16T13:42:50;1.35;;;0.57;;
22164;SDS011;11248;52.512;13.520;2022-10-16T13:45:17;0.90;;;0.80;;
22164;SDS011;11248;52.512;13.520;2022-10-16T13:47:43;0.40;;;0.40;;
22164;SDS011;11248;52.512;13.520;2022-10-16T13:50:13;0.75;;;0.60;;
22164;SDS011;11248;52.512;13.520;2022-10-16T13:52:39;0.60;;;0.60;;
22164;SDS011;11248;52.512;13.520;2022-10-16T13:55:16;0.70;;;0.70;;
22164;SDS011;11248;52.512;13.520;2022-10-16T13:57:43;0.50;;;0.50;;
22164;SDS011;11248;52.512;13.520;2022-10-16T14:00:19;1.52;;;0.50;;
22164;SDS011;11248;52.512;13.520;2022-10-16T14:02:45;2.47;;;0.50;;
22164;SDS011;11248;52.512;13.520;2022-10-16T14:05:16;0.80;;;0.70;;
22164;SDS011;11248;52.512;13.520;2022-10-16T14:07:42;1.70;;;0.60;;
22164;SDS011;11248;52.512;13.520;2022-10-16T14:10:22;2.25;;;1.08;;
22164;SDS011;11248;52.512;13.520;2022-10-16T14:12:58;2.22;;;1.00;;
22164;SDS011;11248;52.512;13.520;2022-10-16T14:15:25;0.82;;;0.80;;
22164;SDS011;11248;52.512;13.520;2022-10-16T14:17:51;1.40;;;0.60;;
22164;SDS011;11248;52.512;13.520;2022-10-16T14:20:18;3.33;;;0.93;;
22164;SDS011;11248;52.512;13.520;2022-10-16T14:22:44;1.13;;;0.70;;
22164;SDS011;11248;52.512;13.520;2022-10-16T14:27:56;1.48;;;0.60;;
22164;SDS011;11248;52.512;13.520;2022-10-16T14:30:23;2.05;;;0.90;;
22164;SDS011;11248;52.512;13.520;2022-10-16T14:32:57;0.70;;;0.70;;
22164;SDS011;11248;52.512;13.520;2022-10-16T14:35:24;1.98;;;0.85;;
22164;SDS011;11248;52.512;13.520;2022-10-16T14:37:54;0.60;;;0.60;;
22164;SDS011;11248;52.512;13.520;2022-10-16T14:40:23;0.80;;;0.60;;
22164;SDS011;11248;52.512;13.520;2022-10-16T14:42:49;0.60;;;0.60;;
22164;SDS011;11248;52.512;13.520;2022-10-16T14:45:18;0.80;;;0.80;;
22164;SDS011;11248;52.512;13.520;2022-10-16T14:47:51;1.60;;;0.90;;
22164;SDS011;11248;52.512;13.520;2022-10-16T14:50:18;2.13;;;0.90;;
22164;SDS011;11248;52.512;13.520;2022-10-16T14:52:44;1.08;;;0.80;;
22164;SDS011;11248;52.512;13.520;2022-10-16T14:55:10;0.82;;;0.70;;
22164;SDS011;11248;52.512;13.520;2022-10-16T14:57:37;1.90;;;0.85;;
22164;SDS011;11248;52.512;13.520;2022-10-16T15:00:06;0.70;;;0.70;;
22164;SDS011;11248;52.512;13.520;2022-10-16T15:02:35;1.42;;;0.65;;
22164;SDS011;11248;52.512;13.520;2022-10-16T15:05:12;0.75;;;0.57;;
22164;SDS011;11248;52.512;13.520;2022-10-16T15:07:38;1.00;;;0.80;;
22164;SDS011;11248;52.512;13.520;2022-10-16T15:10:04;4.25;;;0.68;;
22164;SDS011;11248;52.512;13.520;2022-10-16T15:12:30;1.20;;;0.80;;
22164;SDS011;11248;52.512;13.520;2022-10-16T15:14:56;0.95;;;0.60;;
22164;SDS011;11248;52.512;13.520;2022-10-16T15:17:22;1.35;;;1.00;;
22164;SDS011;11248;52.512;13.520;2022-10-16T15:19:48;1.95;;;1.15;;
22164;SDS011;11248;52.512;13.520;2022-10-16T15:22:14;3.00;;;1.00;;
22164;SDS011;11248;52.512;13.520;2022-10-16T15:24:40;0.98;;;0.95;;
22164;SDS011;11248;52.512;13.520;2022-10-16T15:27:06;1.65;;;0.80;;
22164;SDS011;11248;52.512;13.520;2022-10-16T15:29:32;2.13;;;1.02;;
22164;SDS011;11248;52.512;13.520;2022-10-16T15:31:57;1.48;;;0.80;;
22164;SDS011;11248;52.512;13.520;2022-10-16T15:34:23;0.70;;;0.70;;
22164;SDS011;11248;52.512;13.520;2022-10-16T15:36:49;1.25;;;0.95;;
22164;SDS011;11248;52.512;13.520;2022-10-16T15:39:16;1.38;;;1.20;;
22164;SDS011;11248;52.512;13.520;2022-10-16T15:41:42;0.90;;;0.90;;
22164;SDS011;11248;52.512;13.520;2022-10-16T15:44:09;3.38;;;1.60;;
22164;SDS011;11248;52.512;13.520;2022-10-16T15:46:34;1.42;;;1.10;;
22164;SDS011;11248;52.512;13.520;2022-10-16T15:49:02;1.50;;;0.90;;
22164;SDS011;11248;52.512;13.520;2022-10-16T15:51:28;4.85;;;1.25;;
22164;SDS011;11248;52.512;13.520;2022-10-16T15:53:55;3.75;;;1.75;;